Time;durP1;ratioP1;P1;durP2;ratioP2;P2;SDS_P1;SDS_P2;PMS_P1;PMS_P2;Temp;Humidity;BMP_temperature;BMP_pressure;BME280_temperature;BME280_humidity;BME280_pressure;Samples;Min_cycle;Max_cycle;Signal;HPM_P1;HPM_P2
2022/07/17 00:00:26;;;;;;;3.70;0.80;;;19.20;75.30;;;;;;5009121;28;20542;-90
2022/07/17 00:02:52;;;;;;;1.85;0.82;;;19.70;75.80;;;;;;4991316;28;20030;-91
2022/07/17 00:05:18;;;;;;;3.08;0.70;;;18.70;75.70;;;;;;4991531;28;20034;-91
2022/07/17 00:07:43;;;;;;;1.92;0.73;;;19.10;75.90;;;;;;4992307;28;20037;-90
2022/07/17 00:10:12;;;;;;;1.83;0.98;;;19.10;76.10;;;;;;4989618;28;20660;-89
2022/07/17 00:12:38;;;;;;;2.97;1.10;;;19.00;76.90;;;;;;5010284;28;20111;-91
2022/07/17 00:15:04;;;;;;;2.88;1.17;;;19.10;78.30;;;;;;4994913;28;20069;-90
2022/07/17 00:17:29;;;;;;;2.97;0.80;;;19.00;78.60;;;;;;4995411;28;20036;-89
2022/07/17 00:19:55;;;;;;;2.50;0.85;;;19.00;77.20;;;;;;4995122;28;20058;-89
2022/07/17 00:22:21;;;;;;;1.55;0.63;;;18.90;76.30;;;;;;5000137;28;20022;-89
2022/07/17 00:24:47;;;;;;;2.45;1.10;;;18.90;76.30;;;;;;4997540;28;20033;-90
2022/07/17 00:27:14;;;;;;;2.47;0.90;;;18.90;76.30;;;;;;4999353;28;20021;-90
2022/07/17 00:29:40;;;;;;;1.77;0.80;;;18.80;76.20;;;;;;4999077;28;20030;-89
2022/07/17 00:32:06;;;;;;;2.63;0.80;;;18.90;76.20;;;;;;5014394;28;20033;-88
2022/07/17 00:34:32;;;;;;;2.13;1.05;;;18.90;76.10;;;;;;5013619;28;20022;-89
2022/07/17 00:36:57;;;;;;;1.98;0.70;;;18.90;76.20;;;;;;4994875;28;20058;-89
2022/07/17 00:39:23;;;;;;;1.60;0.75;;;18.80;76.20;;;;;;4994765;28;20041;-89
2022/07/17 00:41:50;;;;;;;1.83;0.63;;;18.80;76.10;;;;;;5012906;28;20037;-90
2022/07/17 00:44:16;;;;;;;1.55;0.70;;;18.80;76.40;;;;;;4995376;28;20044;-89
2022/07/17 00:46:41;;;;;;;1.80;0.60;;;18.80;76.40;;;;;;4992635;28;20044;-89
2022/07/17 00:49:10;;;;;;;1.98;0.80;;;18.80;76.70;;;;;;4993908;28;20482;-89
2022/07/17 00:51:36;;;;;;;2.78;0.90;;;18.80;76.70;;;;;;4993731;28;20026;-90
2022/07/17 00:54:03;;;;;;;1.15;0.60;;;18.70;77.50;;;;;;5009951;28;20395;-89
2022/07/17 00:56:30;;;;;;;2.30;0.90;;;18.60;78.10;;;;;;4992873;28;20025;-89
2022/07/17 00:58:55;;;;;;;1.73;0.70;;;18.50;78.40;;;;;;4999413;23;20145;-88
2022/07/17 01:01:21;;;;;;;2.05;0.98;;;18.50;78.30;;;;;;4968138;28;20164;-90
2022/07/17 01:03:47;;;;;;;1.42;0.80;;;18.20;78.20;;;;;;4990840;28;21307;-88
2022/07/17 01:06:13;;;;;;;2.00;0.77;;;18.30;78.20;;;;;;4979934;28;20586;-88
2022/07/17 01:08:39;;;;;;;1.85;0.80;;;18.30;79.70;;;;;;4995263;28;20022;-88
2022/07/17 01:11:07;;;;;;;2.97;0.80;;;18.30;78.60;;;;;;4977286;28;20023;-88
2022/07/17 01:13:33;;;;;;;1.85;0.77;;;18.30;78.70;;;;;;4978573;28;20026;-88
2022/07/17 01:15:59;;;;;;;2.28;1.05;;;18.20;78.70;;;;;;4976174;28;20805;-88
2022/07/17 01:18:25;;;;;;;2.22;1.00;;;18.20;78.80;;;;;;4979373;28;20023;-88
2022/07/17 01:20:50;;;;;;;1.25;0.65;;;18.20;78.70;;;;;;4974933;28;20042;-87
2022/07/17 01:23:18;;;;;;;2.85;0.90;;;18.20;78.70;;;;;;4976540;28;20026;-87
2022/07/17 01:25:44;;;;;;;4.22;0.90;;;18.20;79.10;;;;;;5001182;28;20572;-88
2022/07/17 01:28:10;;;;;;;1.70;0.80;;;18.20;79.30;;;;;;4982369;28;20044;-88
2022/07/17 01:30:36;;;;;;;2.17;0.90;;;18.20;79.20;;;;;;4981617;28;20109;-88
2022/07/17 01:33:03;;;;;;;1.42;0.55;;;18.10;78.70;;;;;;4976377;28;20054;-88
2022/07/17 01:35:28;;;;;;;1.85;0.70;;;18.10;79.20;;;;;;4994539;28;20033;-88
2022/07/17 01:37:56;;;;;;;1.85;0.80;;;18.10;79.20;;;;;;4977651;28;20138;-89
2022/07/17 01:40:23;;;;;;;4.93;0.82;;;18.00;79.70;;;;;;4972731;28;20057;-88
2022/07/17 01:42:49;;;;;;;2.63;1.00;;;18.00;79.70;;;;;;4976647;28;20031;-89
2022/07/17 01:45:17;;;;;;;2.28;0.80;;;18.00;79.00;;;;;;4993790;28;20030;-88
2022/07/17 01:47:43;;;;;;;1.63;0.60;;;18.00;78.80;;;;;;4994948;28;20587;-88
2022/07/17 01:50:11;;;;;;;1.35;0.68;;;18.00;77.80;;;;;;4996560;28;20018;-88
2022/07/17 01:52:39;;;;;;;2.25;0.70;;;18.00;77.80;;;;;;4990647;28;20026;-87
2022/07/17 01:55:09;;;;;;;1.58;0.57;;;18.00;77.50;;;;;;4969942;28;20095;-88
2022/07/17 01:57:35;;;;;;;1.90;0.60;;;17.90;77.50;;;;;;4986743;28;20475;-88
2022/07/17 02:00:06;;;;;;;3.00;1.05;;;17.90;77.50;;;;;;4988595;28;20487;-87
2022/07/17 02:02:32;;;;;;;2.13;0.80;;;18.00;77.50;;;;;;4988084;28;20134;-87
2022/07/17 02:04:57;;;;;;;3.17;1.20;;;17.70;77.60;;;;;;4973100;28;20517;-88
2022/07/17 02:07:23;;;;;;;2.03;0.98;;;18.00;77.90;;;;;;4972848;28;20572;-87
2022/07/17 02:09:48;;;;;;;1.58;0.70;;;18.00;78.20;;;;;;4972294;28;20061;-87
2022/07/17 02:12:14;;;;;;;3.45;0.95;;;18.00;78.40;;;;;;4987439;28;20045;-88
2022/07/17 02:14:40;;;;;;;3.38;1.17;;;17.90;78.60;;;;;;4977834;28;20030;-87
2022/07/17 02:17:05;;;;;;;2.13;0.93;;;18.00;79.10;;;;;;4967908;28;20030;-88
2022/07/17 02:19:31;;;;;;;4.32;0.90;;;17.90;79.30;;;;;;4983641;28;20035;-87
2022/07/17 02:21:57;;;;;;;2.88;1.10;;;17.80;79.50;;;;;;4984839;28;20045;-87
2022/07/17 02:24:22;;;;;;;2.45;0.80;;;17.80;79.80;;;;;;4971442;28;20023;-87
2022/07/17 02:26:48;;;;;;;2.13;1.00;;;17.70;80.10;;;;;;4986691;28;20058;-87
2022/07/17 02:29:14;;;;;;;3.03;1.20;;;17.70;80.50;;;;;;4970693;28;20120;-87
2022/07/17 02:31:39;;;;;;;2.13;0.88;;;17.60;80.40;;;;;;4972234;28;20116;-87
2022/07/17 02:34:05;;;;;;;2.17;0.82;;;17.70;80.60;;;;;;4968773;28;20038;-86
2022/07/17 02:36:31;;;;;;;4.20;0.85;;;17.70;81.20;;;;;;4971217;28;20034;-87
2022/07/17 02:38:57;;;;;;;1.90;1.00;;;17.60;81.30;;;;;;4971279;28;20026;-87
2022/07/17 02:41:22;;;;;;;4.05;0.88;;;17.50;81.60;;;;;;4971644;28;20037;-87
2022/07/17 02:43:48;;;;;;;2.60;0.88;;;17.50;81.90;;;;;;4970593;28;20144;-87
2022/07/17 02:46:13;;;;;;;2.03;0.77;;;17.40;82.60;;;;;;4971395;28;20029;-87
2022/07/17 02:48:40;;;;;;;1.33;0.60;;;17.30;82.70;;;;;;4973201;28;20517;-88
2022/07/17 02:51:06;;;;;;;3.17;1.00;;;17.20;82.50;;;;;;4992001;28;20072;-87
2022/07/17 02:53:32;;;;;;;2.28;0.90;;;17.20;82.70;;;;;;4975414;28;20030;-86
2022/07/17 02:55:58;;;;;;;1.58;0.77;;;17.10;82.70;;;;;;4972319;28;20034;-86
2022/07/17 02:58:23;;;;;;;2.08;0.82;;;17.10;82.80;;;;;;4972401;28;20038;-86
2022/07/17 03:00:49;;;;;;;2.17;0.93;;;17.10;82.70;;;;;;4972352;28;20046;-86
2022/07/17 03:03:15;;;;;;;4.07;1.00;;;17.10;83.10;;;;;;4975729;28;20394;-86
2022/07/17 03:05:40;;;;;;;1.90;0.80;;;16.80;83.30;;;;;;4979090;28;20030;-87
2022/07/17 03:08:06;;;;;;;1.40;0.73;;;17.10;82.80;;;;;;4980196;28;20050;-87
2022/07/17 03:10:32;;;;;;;1.63;0.70;;;17.10;83.00;;;;;;4994981;28;20104;-87
2022/07/17 03:12:58;;;;;;;3.03;1.08;;;17.00;83.00;;;;;;4976659;28;20029;-86
2022/07/17 03:15:24;;;;;;;5.35;1.00;;;17.00;83.70;;;;;;4994484;28;20039;-87
2022/07/17 03:17:49;;;;;;;2.30;0.93;;;16.90;84.10;;;;;;4976736;28;20034;-87
2022/07/17 03:20:15;;;;;;;3.10;1.08;;;16.90;84.20;;;;;;4992620;28;20121;-86
2022/07/17 03:22:41;;;;;;;3.83;1.02;;;16.80;84.50;;;;;;4971758;28;20054;-87
2022/07/17 03:25:07;;;;;;;1.52;0.80;;;16.70;85.30;;;;;;4967171;28;20347;-87
2022/07/17 03:27:33;;;;;;;3.00;1.00;;;16.70;85.40;;;;;;4979471;28;20723;-87
2022/07/17 03:29:58;;;;;;;3.50;0.98;;;16.80;86.40;;;;;;4989882;28;20080;-87
2022/07/17 03:32:25;;;;;;;2.30;1.10;;;16.60;85.80;;;;;;4969632;28;20122;-88
2022/07/17 03:34:51;;;;;;;2.65;0.88;;;17.30;86.50;;;;;;4975086;28;20030;-88
2022/07/17 03:37:22;;;;;;;1.80;0.85;;;16.70;86.10;;;;;;4975201;28;20026;-88
2022/07/17 03:39:50;;;;;;;2.28;0.90;;;16.60;86.50;;;;;;4975485;28;20030;-88
2022/07/17 03:42:16;;;;;;;2.78;1.00;;;16.80;86.80;;;;;;4991957;28;20038;-88
2022/07/17 03:44:42;;;;;;;2.63;0.90;;;16.50;87.10;;;;;;4977131;28;20120;-88
2022/07/17 03:47:08;;;;;;;1.63;0.70;;;16.60;86.10;;;;;;4980745;28;20510;-88
2022/07/17 03:49:33;;;;;;;1.60;0.90;;;16.50;86.00;;;;;;4978520;28;20077;-88
2022/07/17 03:51:59;;;;;;;1.90;0.88;;;16.50;85.90;;;;;;4996572;28;20081;-87
2022/07/17 03:54:24;;;;;;;2.10;0.90;;;16.50;86.50;;;;;;4974798;28;20026;-88
2022/07/17 03:56:50;;;;;;;1.73;0.68;;;16.50;86.10;;;;;;4994815;28;20038;-88
2022/07/17 03:59:16;;;;;;;1.77;0.77;;;16.80;86.80;;;;;;4997312;28;20034;-87
2022/07/17 04:01:41;;;;;;;2.78;1.10;;;16.70;86.50;;;;;;5002019;28;20084;-88
2022/07/17 04:04:07;;;;;;;1.95;0.70;;;16.50;86.60;;;;;;5001729;28;20099;-86
2022/07/17 04:06:33;;;;;;;2.05;0.90;;;16.50;86.70;;;;;;4996205;28;20054;-88
2022/07/17 04:08:58;;;;;;;2.53;0.80;;;16.50;86.70;;;;;;4981939;28;20336;-88
2022/07/17 04:11:24;;;;;;;2.97;1.23;;;16.50;87.20;;;;;;4978550;28;20416;-87
2022/07/17 04:13:49;;;;;;;3.08;1.15;;;16.70;87.20;;;;;;4982477;28;20038;-88
2022/07/17 04:16:16;;;;;;;2.38;1.10;;;16.50;87.30;;;;;;4997612;28;20026;-88
2022/07/17 04:18:42;;;;;;;2.00;0.90;;;16.50;87.50;;;;;;4983366;28;20061;-88
2022/07/17 04:21:09;;;;;;;2.25;0.95;;;16.50;87.50;;;;;;4983676;28;20395;-88
2022/07/17 04:23:36;;;;;;;2.22;0.95;;;17.40;88.30;;;;;;4983686;28;20035;-88
2022/07/17 04:26:04;;;;;;;3.00;1.30;;;16.50;88.20;;;;;;4983856;28;20022;-88
2022/07/17 04:28:29;;;;;;;2.35;1.23;;;16.50;87.80;;;;;;4984382;28;20029;-88
2022/07/17 04:30:55;;;;;;;2.03;0.90;;;16.50;89.30;;;;;;4999597;28;20031;-88
2022/07/17 04:33:21;;;;;;;2.70;1.10;;;16.80;88.80;;;;;;4981835;28;20061;-88
2022/07/17 04:35:46;;;;;;;2.75;1.05;;;17.10;88.60;;;;;;4983608;28;20034;-88
2022/07/17 04:38:12;;;;;;;4.57;1.23;;;16.40;89.20;;;;;;5000323;28;20387;-88
2022/07/17 04:40:39;;;;;;;1.80;0.90;;;16.70;89.10;;;;;;5001442;28;20095;-86
2022/07/17 04:43:05;;;;;;;2.90;1.10;;;16.70;88.10;;;;;;4979926;28;20057;-87
2022/07/17 04:45:31;;;;;;;3.22;1.30;;;16.80;88.00;;;;;;4976962;28;20030;-87
2022/07/17 04:47:57;;;;;;;3.47;1.33;;;16.80;87.90;;;;;;4978952;28;20018;-87
2022/07/17 04:50:24;;;;;;;3.05;1.08;;;16.90;87.90;;;;;;4978796;28;20109;-87
2022/07/17 04:52:49;;;;;;;2.30;1.13;;;17.00;87.80;;;;;;4977871;28;20034;-87
2022/07/17 04:55:16;;;;;;;4.22;1.45;;;17.10;87.60;;;;;;4992573;28;20077;-86
2022/07/17 04:57:42;;;;;;;3.50;1.50;;;17.10;87.60;;;;;;4975466;28;20104;-89
2022/07/17 05:00:09;;;;;;;2.97;1.20;;;17.20;87.50;;;;;;4977246;28;20085;-86
2022/07/17 05:02:35;;;;;;;3.25;1.60;;;17.20;88.00;;;;;;4976266;28;20045;-86
2022/07/17 05:05:02;;;;;;;4.18;1.42;;;18.10;87.90;;;;;;4993346;28;20026;-86
2022/07/17 05:07:27;;;;;;;2.75;1.25;;;17.30;87.80;;;;;;4975199;28;20085;-86
2022/07/17 05:09:53;;;;;;;2.80;1.20;;;17.40;87.90;;;;;;4989768;28;20042;-88
2022/07/17 05:12:19;;;;;;;2.88;1.15;;;17.50;87.00;;;;;;4979937;28;20030;-88
2022/07/17 05:14:44;;;;;;;2.55;1.00;;;17.50;86.70;;;;;;4978171;28;20038;-88
2022/07/17 05:17:11;;;;;;;3.72;1.23;;;17.60;86.90;;;;;;4973818;28;20095;-86
2022/07/17 05:19:36;;;;;;;3.28;1.05;;;17.60;87.00;;;;;;4976182;28;20033;-87
2022/07/17 05:22:02;;;;;;;3.30;1.15;;;17.60;86.80;;;;;;4974795;28;20406;-88
2022/07/17 05:24:28;;;;;;;3.03;1.35;;;18.30;86.80;;;;;;4973438;28;20605;-87
2022/07/17 05:26:53;;;;;;;3.60;1.38;;;17.70;86.20;;;;;;4975503;28;20123;-87
2022/07/17 05:29:19;;;;;;;3.83;1.35;;;17.80;86.10;;;;;;4973662;28;20105;-87
2022/07/17 05:31:45;;;;;;;3.13;1.30;;;17.70;85.70;;;;;;4975547;28;20026;-87
2022/07/17 05:34:10;;;;;;;2.88;1.35;;;17.70;86.10;;;;;;4993595;28;20109;-88
2022/07/17 05:36:36;;;;;;;3.75;1.52;;;17.80;85.90;;;;;;4975232;28;20085;-88
2022/07/17 05:39:02;;;;;;;2.30;1.05;;;17.80;86.00;;;;;;4987010;28;20058;-87
2022/07/17 05:41:27;;;;;;;3.20;1.17;;;18.00;85.60;;;;;;4975065;28;20034;-87
2022/07/17 05:43:53;;;;;;;5.68;1.45;;;18.10;85.80;;;;;;4990002;28;20434;-87
2022/07/17 05:46:19;;;;;;;3.38;1.48;;;18.10;85.70;;;;;;4991277;28;20037;-86
2022/07/17 05:48:44;;;;;;;5.47;1.77;;;18.00;85.90;;;;;;4988246;28;20035;-87
2022/07/17 05:51:10;;;;;;;3.47;1.40;;;18.30;85.90;;;;;;4988930;28;20185;-87
2022/07/17 05:53:36;;;;;;;4.30;1.63;;;18.30;86.10;;;;;;4990731;28;20072;-87
2022/07/17 05:56:02;;;;;;;4.47;1.45;;;18.20;86.20;;;;;;4972797;28;20517;-87
2022/07/17 05:58:27;;;;;;;3.70;1.52;;;18.30;86.20;;;;;;4971129;28;20043;-86
2022/07/17 06:00:53;;;;;;;2.67;1.23;;;18.20;86.00;;;;;;4987460;28;20510;-87
2022/07/17 06:03:19;;;;;;;3.53;1.50;;;18.10;85.70;;;;;;4989076;28;20078;-88
2022/07/17 06:05:45;;;;;;;8.43;1.63;;;18.00;86.20;;;;;;4975684;28;20040;-87
2022/07/17 06:08:11;;;;;;;3.33;1.83;;;18.00;86.80;;;;;;4992303;28;20115;-88
2022/07/17 06:10:38;;;;;;;3.05;1.30;;;18.20;86.50;;;;;;4994481;28;20065;-87
2022/07/17 06:13:04;;;;;;;3.47;1.42;;;18.20;86.40;;;;;;4978682;28;20036;-88
2022/07/17 06:15:29;;;;;;;2.35;1.15;;;18.40;85.80;;;;;;4979670;28;20121;-88
2022/07/17 06:17:55;;;;;;;3.22;1.52;;;18.50;86.00;;;;;;4994708;28;20088;-87
2022/07/17 06:20:21;;;;;;;2.75;1.13;;;18.60;85.80;;;;;;4989070;28;20033;-87
2022/07/17 06:22:47;;;;;;;3.40;1.40;;;18.80;86.10;;;;;;4985927;28;20036;-87
2022/07/17 06:25:12;;;;;;;4.45;1.65;;;18.90;85.30;;;;;;4987240;28;20061;-87
2022/07/17 06:27:40;;;;;;;3.35;1.40;;;19.00;84.80;;;;;;4990716;28;20045;-88
2022/07/17 06:30:07;;;;;;;3.25;1.17;;;19.00;85.10;;;;;;4988588;28;20022;-88
2022/07/17 06:32:32;;;;;;;2.65;1.08;;;19.00;84.60;;;;;;4974426;28;20033;-87
2022/07/17 06:34:58;;;;;;;2.35;1.10;;;19.10;84.90;;;;;;4991824;28;20035;-88
2022/07/17 06:37:23;;;;;;;2.42;1.00;;;19.20;84.50;;;;;;4979221;28;20138;-87
2022/07/17 06:39:49;;;;;;;3.03;1.23;;;19.20;84.40;;;;;;4975509;28;20034;-88
2022/07/17 06:42:15;;;;;;;2.53;1.10;;;19.40;84.10;;;;;;4972415;28;20026;-87
2022/07/17 06:44:40;;;;;;;2.20;1.13;;;19.60;83.80;;;;;;4982787;28;20061;-89
2022/07/17 06:47:06;;;;;;;2.83;1.25;;;19.70;83.70;;;;;;4969807;28;20726;-89
2022/07/17 06:49:32;;;;;;;4.35;1.38;;;19.90;82.60;;;;;;4967564;28;20077;-89
2022/07/17 06:51:57;;;;;;;2.70;1.30;;;19.90;82.80;;;;;;4971534;28;20391;-89
2022/07/17 06:54:25;;;;;;;3.30;1.10;;;20.00;82.60;;;;;;4973651;28;20117;-89
2022/07/17 06:56:52;;;;;;;2.60;0.82;;;20.10;81.60;;;;;;4971448;28;20034;-89
2022/07/17 06:59:18;;;;;;;3.03;0.90;;;20.40;81.60;;;;;;4971958;28;20491;-89
2022/07/17 07:01:43;;;;;;;2.17;0.82;;;20.50;79.90;;;;;;5001392;23;20050;-88
2022/07/17 07:04:09;;;;;;;2.63;1.00;;;20.70;77.90;;;;;;4993075;28;20022;-88
2022/07/17 07:06:35;;;;;;;3.55;0.70;;;20.80;76.80;;;;;;4995069;28;20688;-89
2022/07/17 07:09:01;;;;;;;2.13;0.63;;;20.90;76.80;;;;;;5009791;28;20018;-88
2022/07/17 07:11:26;;;;;;;1.92;0.75;;;21.10;76.40;;;;;;4979542;28;20510;-88
2022/07/17 07:13:52;;;;;;;2.67;0.98;;;21.20;75.40;;;;;;4985950;28;20027;-89
2022/07/17 07:16:18;;;;;;;1.25;0.55;;;20.80;74.00;;;;;;4969659;28;20031;-88
2022/07/17 07:18:43;;;;;;;1.80;0.75;;;21.30;74.20;;;;;;4986693;28;20045;-88
2022/07/17 07:21:09;;;;;;;3.13;0.77;;;21.50;74.50;;;;;;4987674;28;20110;-89
2022/07/17 07:23:35;;;;;;;1.67;0.70;;;21.50;73.50;;;;;;4974880;28;20387;-89
2022/07/17 07:26:01;;;;;;;2.75;0.80;;;21.50;74.50;;;;;;4976429;28;20038;-88
2022/07/17 07:28:27;;;;;;;1.95;0.70;;;21.60;74.20;;;;;;4973278;28;20029;-88
2022/07/17 07:30:53;;;;;;;2.25;0.80;;;21.70;74.00;;;;;;4977271;28;20554;-89
2022/07/17 07:33:18;;;;;;;1.85;0.70;;;21.80;74.30;;;;;;4970808;28;20022;-88
2022/07/17 07:35:44;;;;;;;2.20;0.75;;;21.90;74.70;;;;;;4970140;28;20490;-88
2022/07/17 07:38:10;;;;;;;2.22;0.77;;;22.00;73.70;;;;;;4975191;28;20519;-89
2022/07/17 07:40:37;;;;;;;2.20;0.80;;;21.90;73.00;;;;;;4973062;28;20108;-87
2022/07/17 07:43:03;;;;;;;2.60;0.80;;;22.20;73.30;;;;;;4974728;28;20034;-88
2022/07/17 07:45:30;;;;;;;1.55;0.73;;;22.30;72.10;;;;;;4973643;28;20019;-88
2022/07/17 07:47:56;;;;;;;1.70;0.70;;;22.40;71.90;;;;;;4976452;28;20029;-87
2022/07/17 07:50:23;;;;;;;1.73;0.80;;;22.50;71.00;;;;;;4993352;28;20018;-88
2022/07/17 07:52:50;;;;;;;1.88;0.80;;;22.60;71.00;;;;;;4990935;28;20106;-88
2022/07/17 07:55:21;;;;;;;1.35;0.60;;;22.70;71.00;;;;;;4986610;28;20033;-87
2022/07/17 07:58:09;;;;;;;0.98;0.50;;;22.80;70.40;;;;;;4986984;28;20058;-87
2022/07/17 08:00:35;;;;;;;2.60;0.70;;;23.20;69.90;;;;;;4994296;28;20035;-87
2022/07/17 08:03:01;;;;;;;1.70;0.80;;;23.20;69.90;;;;;;4973950;28;20627;-88
2022/07/17 08:05:27;;;;;;;1.73;0.70;;;23.40;69.60;;;;;;4968533;28;20023;-88
2022/07/17 08:07:56;;;;;;;1.45;0.85;;;23.60;69.10;;;;;;4973436;28;20027;-88
2022/07/17 08:10:22;;;;;;;1.55;0.60;;;23.70;69.60;;;;;;4974279;28;20018;-87
2022/07/17 08:12:47;;;;;;;1.85;0.60;;;23.60;67.40;;;;;;4974312;28;20019;-87
2022/07/17 08:15:15;;;;;;;1.48;0.65;;;23.40;66.60;;;;;;4990781;28;20073;-88
2022/07/17 08:17:41;;;;;;;1.70;0.70;;;23.30;68.00;;;;;;4974465;28;20030;-88
2022/07/17 08:20:07;;;;;;;1.38;0.63;;;23.30;68.40;;;;;;4973621;28;20033;-88
2022/07/17 08:22:32;;;;;;;2.47;0.98;;;23.50;68.40;;;;;;4974070;28;20030;-88
2022/07/17 08:24:58;;;;;;;1.08;0.60;;;23.60;68.40;;;;;;4974166;28;20033;-88
2022/07/17 08:27:24;;;;;;;1.70;0.60;;;23.90;66.90;;;;;;5001350;28;20030;-88
2022/07/17 08:29:50;;;;;;;3.03;0.70;;;23.80;67.20;;;;;;4973225;28;20026;-88
2022/07/17 08:32:15;;;;;;;2.22;0.70;;;23.90;66.10;;;;;;4976674;28;20031;-88
2022/07/17 08:34:41;;;;;;;1.55;0.57;;;24.00;66.40;;;;;;4975216;28;20482;-88
2022/07/17 08:37:10;;;;;;;1.73;0.63;;;24.00;66.10;;;;;;4976460;28;20472;-87
2022/07/17 08:39:35;;;;;;;1.67;0.50;;;24.10;66.60;;;;;;4990687;28;20026;-88
2022/07/17 08:42:07;;;;;;;1.20;0.60;;;24.10;68.00;;;;;;4973182;28;20034;-88
2022/07/17 08:44:33;;;;;;;1.58;0.60;;;24.30;66.60;;;;;;4975177;28;20043;-88
2022/07/17 08:47:02;;;;;;;1.73;0.73;;;24.50;66.20;;;;;;4971266;28;20030;-88
2022/07/17 08:49:28;;;;;;;1.00;0.55;;;24.70;65.50;;;;;;4966434;28;20023;-89
2022/07/17 08:51:55;;;;;;;0.95;0.70;;;24.80;66.10;;;;;;4986068;28;20505;-89
2022/07/17 08:54:22;;;;;;;1.30;0.63;;;24.90;65.70;;;;;;4976115;28;20118;-89
2022/07/17 08:56:48;;;;;;;1.30;0.65;;;25.00;64.80;;;;;;4975512;28;20037;-89
2022/07/17 08:59:13;;;;;;;1.20;0.50;;;25.10;64.70;;;;;;4986330;28;20122;-88
2022/07/17 09:01:41;;;;;;;1.30;0.50;;;24.90;64.80;;;;;;4982028;28;20031;-88
2022/07/17 09:04:09;;;;;;;0.88;0.50;;;25.00;65.80;;;;;;4973011;28;20026;-88
2022/07/17 09:06:36;;;;;;;1.02;0.50;;;25.20;64.90;;;;;;4992970;28;20053;-89
2022/07/17 09:09:12;;;;;;;2.33;0.70;;;25.30;64.50;;;;;;4976055;28;20503;-88
2022/07/17 09:11:50;;;;;;;4.03;0.50;;;25.20;64.30;;;;;;4975050;28;20019;-88
2022/07/17 09:14:16;;;;;;;1.08;0.40;;;25.30;64.00;;;;;;4975481;28;20033;-89
2022/07/17 09:16:48;;;;;;;0.77;0.40;;;25.30;63.90;;;;;;4975501;28;20894;-88
2022/07/17 09:19:24;;;;;;;0.90;0.43;;;25.50;62.80;;;;;;4993679;28;20010;-88
2022/07/17 09:21:53;;;;;;;1.80;0.60;;;25.50;62.90;;;;;;4991774;28;20024;-89
2022/07/17 09:24:19;;;;;;;0.95;0.50;;;25.50;62.30;;;;;;4971554;28;20034;-88
2022/07/17 09:26:45;;;;;;;1.75;0.52;;;25.70;63.00;;;;;;4976630;28;20026;-88
2022/07/17 09:29:12;;;;;;;2.17;0.45;;;25.70;61.80;;;;;;4994474;28;20034;-88
2022/07/17 09:31:38;;;;;;;1.05;0.50;;;25.60;61.40;;;;;;4976159;28;20019;-88
2022/07/17 09:34:04;;;;;;;1.85;0.52;;;25.90;62.40;;;;;;4975926;28;20026;-88
2022/07/17 09:36:30;;;;;;;1.92;0.50;;;26.00;61.30;;;;;;4994302;28;20099;-88
2022/07/17 09:38:58;;;;;;;1.20;0.40;;;26.20;60.70;;;;;;4976171;28;20822;-87
2022/07/17 09:41:25;;;;;;;1.40;0.60;;;26.20;60.60;;;;;;4976273;28;20034;-89
2022/07/17 09:43:53;;;;;;;1.77;0.60;;;26.40;59.00;;;;;;4975611;28;20050;-89
2022/07/17 09:46:30;;;;;;;0.95;0.40;;;26.60;58.70;;;;;;4975544;28;20382;-89
2022/07/17 09:49:04;;;;;;;1.10;0.55;;;26.70;59.20;;;;;;4975539;28;20419;-88
2022/07/17 09:51:32;;;;;;;0.70;0.40;;;26.70;59.40;;;;;;4973470;28;20034;-89
2022/07/17 09:54:00;;;;;;;0.77;0.50;;;26.80;59.40;;;;;;4991900;28;20023;-88
2022/07/17 09:56:28;;;;;;;1.20;0.40;;;26.90;58.80;;;;;;4972993;28;20036;-89
2022/07/17 09:58:59;;;;;;;0.70;0.40;;;26.90;58.90;;;;;;4992351;28;20018;-88
2022/07/17 10:01:25;;;;;;;;;;;26.90;58.50;;;;;;4973888;28;20022;-88
2022/07/17 10:03:53;;;;;;;0.50;0.30;;;27.00;58.40;;;;;;4975255;28;19905;-88
2022/07/17 10:06:20;;;;;;;1.00;0.30;;;27.30;58.40;;;;;;4974582;28;20046;-88
2022/07/17 10:08:46;;;;;;;1.65;0.50;;;27.40;58.60;;;;;;4973951;28;20372;-88
2022/07/17 10:11:15;;;;;;;1.08;0.52;;;27.60;56.90;;;;;;4974378;28;20113;-89
2022/07/17 10:13:45;;;;;;;1.30;0.40;;;27.50;57.10;;;;;;4973928;28;20031;-88
2022/07/17 10:16:14;;;;;;;1.02;0.50;;;27.40;57.60;;;;;;4973245;28;20062;-93
2022/07/17 10:18:44;;;;;;;1.35;0.50;;;27.10;57.00;;;;;;4977751;28;20018;-93
2022/07/17 10:21:21;;;;;;;0.70;0.30;;;27.40;56.50;;;;;;4975656;28;20022;-92
2022/07/17 10:24:08;;;;;;;0.77;0.32;;;27.60;55.90;;;;;;4977174;28;20035;-86
2022/07/17 10:26:36;;;;;;;0.90;0.40;;;27.60;57.10;;;;;;4971282;28;20045;-87
2022/07/17 10:29:03;;;;;;;1.10;0.50;;;27.50;56.40;;;;;;4975908;28;20545;-88
2022/07/17 10:31:32;;;;;;;1.30;0.60;;;27.80;56.30;;;;;;4969394;28;20118;-86
2022/07/17 10:34:00;;;;;;;0.60;0.30;;;28.10;56.70;;;;;;4966021;28;20122;-88
2022/07/17 10:36:42;;;;;;;1.08;0.60;;;28.40;56.10;;;;;;4972075;28;20023;-88
2022/07/17 10:39:16;;;;;;;3.40;0.60;;;28.40;55.60;;;;;;4971224;28;20022;-88
2022/07/17 10:41:56;;;;;;;2.10;0.40;;;28.40;54.60;;;;;;4971397;28;20038;-88
2022/07/17 10:44:30;;;;;;;1.02;0.30;;;28.60;56.10;;;;;;4975293;28;20026;-88
2022/07/17 10:46:59;;;;;;;0.43;0.30;;;28.70;55.20;;;;;;4971643;28;20027;-88
2022/07/17 10:49:25;;;;;;;0.45;0.35;;;28.30;55.10;;;;;;4990712;28;20027;-88
2022/07/17 10:51:51;;;;;;;0.70;0.30;;;28.00;55.10;;;;;;4970585;28;20041;-88
2022/07/17 10:54:20;;;;;;;1.45;0.50;;;28.00;55.50;;;;;;4974183;28;20022;-88
2022/07/17 10:56:46;;;;;;;0.65;0.30;;;28.60;55.00;;;;;;4967317;28;20054;-88
2022/07/17 10:59:12;;;;;;;1.77;0.30;;;28.90;54.80;;;;;;4981356;28;20545;-88
2022/07/17 11:01:41;;;;;;;1.17;0.40;;;29.00;54.40;;;;;;4992037;28;20041;-87
2022/07/17 11:04:06;;;;;;;0.68;0.30;;;29.10;53.60;;;;;;4989990;28;20030;-88
2022/07/17 11:06:39;;;;;;;0.63;0.40;;;29.40;52.90;;;;;;4973595;28;20481;-87
2022/07/17 11:09:08;;;;;;;1.48;0.32;;;29.10;53.40;;;;;;4987897;28;20018;-88
2022/07/17 11:11:42;;;;;;;1.05;0.30;;;29.20;54.70;;;;;;4960260;28;20364;-88
2022/07/17 11:14:08;;;;;;;1.50;0.50;;;29.60;54.50;;;;;;4973753;28;20022;-86
2022/07/17 11:16:37;;;;;;;1.02;0.30;;;29.60;52.40;;;;;;4991156;28;20506;-87
2022/07/17 11:19:05;;;;;;;0.80;0.35;;;29.80;53.40;;;;;;4991602;28;20029;-87
2022/07/17 11:21:35;;;;;;;0.70;0.40;;;29.80;52.10;;;;;;4968703;28;20076;-86
2022/07/17 11:24:01;;;;;;;0.57;0.40;;;30.00;52.00;;;;;;4979153;28;20095;-88
2022/07/17 11:26:26;;;;;;;0.40;0.25;;;29.30;52.50;;;;;;4981673;28;20050;-88
2022/07/17 11:28:56;;;;;;;2.28;0.40;;;29.90;53.20;;;;;;4996423;28;20050;-88
2022/07/17 11:31:27;;;;;;;0.50;0.30;;;30.30;52.00;;;;;;4988849;28;20105;-88
2022/07/17 11:34:08;;;;;;;1.73;0.40;;;30.40;52.00;;;;;;4973449;28;20379;-88
2022/07/17 11:36:37;;;;;;;;;;;30.60;51.50;;;;;;4973485;28;20501;-87
2022/07/17 11:39:14;;;;;;;1.30;0.38;;;30.80;51.80;;;;;;4969297;28;20382;-88
2022/07/17 11:41:46;;;;;;;1.98;0.40;;;31.10;59.80;;;;;;4967077;28;20030;-88
2022/07/17 11:44:16;;;;;;;1.33;0.40;;;31.20;51.50;;;;;;4974560;28;20038;-88
2022/07/17 11:46:43;;;;;;;;;;;30.90;51.40;;;;;;4972646;28;22325;-88
2022/07/17 11:49:09;;;;;;;0.77;0.40;;;30.60;50.10;;;;;;4970329;28;19906;-88
2022/07/17 11:51:44;;;;;;;0.90;0.50;;;31.60;51.20;;;;;;4973629;28;20027;-88
2022/07/17 11:54:17;;;;;;;0.73;0.38;;;31.60;50.10;;;;;;4968330;28;20045;-87
2022/07/17 11:56:55;;;;;;;0.77;0.52;;;31.70;49.80;;;;;;4971647;28;20068;-88
2022/07/17 11:59:26;;;;;;;1.10;0.35;;;31.60;50.10;;;;;;4991427;28;20446;-88
2022/07/17 12:01:53;;;;;;;0.75;0.40;;;32.00;49.00;;;;;;4972963;28;20495;-87
2022/07/17 12:04:18;;;;;;;1.00;0.40;;;30.20;48.90;;;;;;4989230;28;20509;-87
2022/07/17 12:06:46;;;;;;;0.43;0.30;;;30.60;49.60;;;;;;4972427;28;20058;-88
2022/07/17 12:09:25;;;;;;;1.15;0.50;;;31.20;50.30;;;;;;4976231;28;20030;-88
2022/07/17 12:11:58;;;;;;;2.13;0.45;;;31.30;49.00;;;;;;4977506;28;20026;-88
2022/07/17 12:14:24;;;;;;;1.17;0.40;;;31.50;51.60;;;;;;4976750;28;20038;-88
2022/07/17 12:16:58;;;;;;;0.30;0.20;;;31.70;49.30;;;;;;4994379;28;20045;-88
2022/07/17 12:19:24;;;;;;;0.50;0.20;;;31.40;49.20;;;;;;4980498;28;20037;-88
2022/07/17 12:22:06;;;;;;;2.33;0.60;;;32.20;48.60;;;;;;4972425;28;20460;-88
2022/07/17 12:24:43;;;;;;;1.08;0.50;;;32.80;47.90;;;;;;4994409;28;20034;-88
2022/07/17 12:27:14;;;;;;;1.35;0.43;;;32.80;48.30;;;;;;4975552;28;20043;-87
2022/07/17 12:29:44;;;;;;;0.43;0.22;;;33.00;48.70;;;;;;4977072;28;20042;-87
2022/07/17 12:32:17;;;;;;;0.82;0.40;;;32.60;48.80;;;;;;4991771;28;20054;-87
2022/07/17 12:34:54;;;;;;;0.80;0.30;;;32.70;49.60;;;;;;4968711;28;20092;-87
2022/07/17 12:37:21;;;;;;;1.20;0.52;;;32.70;49.90;;;;;;4977162;28;20038;-87
2022/07/17 12:39:50;;;;;;;0.73;0.30;;;32.60;48.60;;;;;;4973085;28;20137;-87
2022/07/17 12:42:19;;;;;;;0.95;0.40;;;33.10;50.10;;;;;;4975164;28;20027;-87
2022/07/17 12:44:45;;;;;;;0.50;0.28;;;33.20;48.00;;;;;;4993745;28;20052;-88
2022/07/17 12:47:11;;;;;;;0.85;0.50;;;33.40;47.60;;;;;;4994543;28;20527;-87